createdAt,value
2022-12-31T00:02:09.303Z,11.00
2022-12-31T00:06:20.864Z,11.06
2022-12-31T00:10:22.299Z,11.19
2022-12-31T00:14:23.714Z,11.41
2022-12-31T00:18:26.875Z,11.28
2022-12-31T00:22:28.294Z,11.39
2022-12-31T00:26:31.700Z,11.56
2022-12-31T00:30:34.374Z,11.76
2022-12-31T00:34:35.912Z,11.73
2022-12-31T00:38:38.385Z,11.90
2022-12-31T00:42:39.914Z,12.01
2022-12-31T00:50:42.041Z,12.09
2022-12-31T00:54:43.708Z,11.91
2022-12-31T00:58:45.265Z,11.97
2022-12-31T01:02:46.784Z,12.03
2022-12-31T01:06:48.516Z,12.15
2022-12-31T01:11:08.482Z,11.97
2022-12-31T01:15:10.376Z,12.01
2022-12-31T01:19:17.978Z,12.02
2022-12-31T01:23:19.431Z,12.19
2022-12-31T01:27:20.853Z,12.40
2022-12-31T01:31:23.640Z,12.26
2022-12-31T01:35:25.586Z,12.37
2022-12-31T01:39:27.037Z,12.43
2022-12-31T01:43:50.082Z,12.55
2022-12-31T01:47:57.090Z,12.35
2022-12-31T01:52:06.588Z,12.41
2022-12-31T01:56:09.561Z,12.34
2022-12-31T02:00:11.635Z,12.42
2022-12-31T02:04:14.911Z,12.71
2022-12-31T02:08:17.485Z,12.28
2022-12-31T02:12:19.524Z,12.41
2022-12-31T02:16:37.667Z,12.13
2022-12-31T02:21:00.422Z,12.42
2022-12-31T02:25:01.856Z,12.29
2022-12-31T02:29:41.260Z,12.23
2022-12-31T02:33:52.120Z,12.42
2022-12-31T02:37:59.196Z,12.43
2022-12-31T02:42:02.609Z,12.68
2022-12-31T02:46:16.658Z,12.50
2022-12-31T02:50:32.430Z,12.69
2022-12-31T02:54:49.224Z,12.56
2022-12-31T02:59:39.135Z,12.36
2022-12-31T03:03:41.468Z,12.50
2022-12-31T03:07:44.242Z,12.54
2022-12-31T03:12:05.040Z,12.59
2022-12-31T03:16:06.779Z,12.64
2022-12-31T03:20:27.474Z,12.65
2022-12-31T03:24:47.726Z,12.50
2022-12-31T03:28:49.115Z,12.38
2022-12-31T03:32:51.701Z,12.80
2022-12-31T03:36:53.149Z,12.89
2022-12-31T03:40:54.621Z,12.75
2022-12-31T03:44:56.105Z,12.79
2022-12-31T03:48:58.596Z,12.99
2022-12-31T03:53:00.727Z,12.61
2022-12-31T03:57:02.161Z,12.69
2022-12-31T04:01:03.655Z,12.79
2022-12-31T04:05:05.706Z,12.91
2022-12-31T04:09:07.108Z,12.66
2022-12-31T04:13:08.546Z,12.82
2022-12-31T04:17:10.033Z,12.83
2022-12-31T04:21:11.552Z,12.91
2022-12-31T04:25:13.241Z,12.81
2022-12-31T04:29:14.730Z,12.93
2022-12-31T04:33:16.150Z,12.91
2022-12-31T04:37:17.637Z,12.84
2022-12-31T04:41:19.758Z,12.91
2022-12-31T04:45:21.180Z,12.91
2022-12-31T04:49:22.642Z,12.76
2022-12-31T04:53:24.600Z,13.01
2022-12-31T04:57:26.037Z,13.05
2022-12-31T05:01:27.586Z,13.03
2022-12-31T05:05:29.129Z,13.02
2022-12-31T05:09:31.015Z,12.97
2022-12-31T05:13:33.817Z,12.80
2022-12-31T05:17:35.346Z,13.02
2022-12-31T05:21:37.007Z,12.98
2022-12-31T05:25:38.549Z,12.99
2022-12-31T05:29:39.966Z,13.01
2022-12-31T05:33:41.417Z,12.78
2022-12-31T05:37:43.459Z,12.80
2022-12-31T05:41:44.882Z,12.76
2022-12-31T05:45:46.350Z,12.70
2022-12-31T05:49:47.916Z,12.94
2022-12-31T05:53:49.314Z,13.14
2022-12-31T05:57:50.861Z,13.13
2022-12-31T06:01:52.304Z,13.15
2022-12-31T06:05:53.748Z,13.05
2022-12-31T06:09:55.186Z,13.28
2022-12-31T06:13:58.195Z,13.23
2022-12-31T06:17:59.737Z,13.27
2022-12-31T06:22:01.216Z,12.97
2022-12-31T06:26:06.487Z,12.98
2022-12-31T06:30:08.767Z,13.05
2022-12-31T06:34:10.303Z,13.15
2022-12-31T06:38:11.839Z,12.98
2022-12-31T06:42:14.336Z,12.84
2022-12-31T06:46:17.387Z,12.84
2022-12-31T06:50:19.019Z,12.79
2022-12-31T06:54:20.528Z,12.65
2022-12-31T06:58:22.336Z,12.96
2022-12-31T07:02:53.869Z,13.02
2022-12-31T07:07:13.282Z,13.01
2022-12-31T07:11:20.535Z,12.91
2022-12-31T07:15:55.192Z,12.92
2022-12-31T07:20:14.506Z,12.94
2022-12-31T07:24:16.430Z,12.91
2022-12-31T07:28:49.321Z,12.66
2022-12-31T07:33:00.123Z,12.79
2022-12-31T07:37:27.987Z,13.01
2022-12-31T07:41:54.658Z,12.80
2022-12-31T07:46:35.935Z,12.88
2022-12-31T07:50:38.646Z,12.91
2022-12-31T07:54:40.153Z,12.94
2022-12-31T07:59:02.503Z,12.81
2022-12-31T08:03:32.209Z,12.74
2022-12-31T08:08:00.697Z,12.86
2022-12-31T08:12:02.774Z,12.89
2022-12-31T08:16:04.600Z,13.03
2022-12-31T08:20:06.869Z,12.91
2022-12-31T08:24:43.877Z,12.97
2022-12-31T08:28:54.207Z,12.73
2022-12-31T08:33:28.822Z,12.83
2022-12-31T08:38:01.348Z,12.96
2022-12-31T08:42:10.005Z,13.04
2022-12-31T08:46:24.073Z,13.05
2022-12-31T08:50:25.895Z,12.94
2022-12-31T08:54:28.052Z,13.03
2022-12-31T08:58:42.472Z,12.92
2022-12-31T09:03:05.450Z,12.84
2022-12-31T09:07:09.508Z,12.95
2022-12-31T09:11:40.231Z,12.99
2022-12-31T09:15:52.206Z,13.23
2022-12-31T09:19:54.064Z,13.46
2022-12-31T09:23:55.711Z,13.25
2022-12-31T09:28:09.238Z,13.34
2022-12-31T09:32:25.233Z,13.40
2022-12-31T09:36:38.093Z,13.38
2022-12-31T09:41:02.097Z,13.21
2022-12-31T09:45:30.382Z,13.03
2022-12-31T09:50:11.080Z,13.19
2022-12-31T09:54:36.661Z,13.11
2022-12-31T09:59:02.987Z,13.15
2022-12-31T10:03:40.463Z,13.23
2022-12-31T10:08:16.714Z,13.54
2022-12-31T10:12:51.081Z,13.47
2022-12-31T10:17:27.819Z,13.56
2022-12-31T10:21:47.331Z,13.38
2022-12-31T10:26:16.793Z,13.55
2022-12-31T10:30:20.816Z,13.40
2022-12-31T10:34:31.413Z,13.68
2022-12-31T10:38:47.381Z,13.69
2022-12-31T10:43:22.442Z,13.92
2022-12-31T10:47:45.744Z,13.86
2022-12-31T10:51:59.481Z,13.62
2022-12-31T10:56:35.705Z,13.87
2022-12-31T11:01:13.351Z,13.76
2022-12-31T11:05:52.120Z,13.67
2022-12-31T11:10:36.079Z,13.62
2022-12-31T11:15:22.144Z,13.49
2022-12-31T11:20:17.718Z,13.72
2022-12-31T11:24:46.994Z,13.63
2022-12-31T11:29:11.570Z,13.63
2022-12-31T11:33:50.466Z,13.73
2022-12-31T11:38:27.866Z,13.04
2022-12-31T11:43:02.277Z,13.53
2022-12-31T11:47:22.018Z,13.42
2022-12-31T11:51:32.700Z,13.46
2022-12-31T11:55:49.692Z,13.51
2022-12-31T11:59:57.064Z,13.55
2022-12-31T12:03:58.860Z,13.68
2022-12-31T12:08:01.638Z,13.64
2022-12-31T12:12:05.257Z,13.53
2022-12-31T12:16:08.151Z,13.83
2022-12-31T12:20:19.979Z,13.95
2022-12-31T12:24:26.872Z,13.94
2022-12-31T12:28:44.323Z,14.01
2022-12-31T12:32:58.801Z,14.10
2022-12-31T12:37:01.441Z,14.11
2022-12-31T12:41:06.099Z,14.21
2022-12-31T12:45:15.792Z,14.29
2022-12-31T12:49:32.831Z,14.39
2022-12-31T12:54:22.364Z,14.32
2022-12-31T12:58:48.020Z,14.55
2022-12-31T13:03:12.475Z,14.57
2022-12-31T13:07:41.933Z,14.67
2022-12-31T13:12:10.092Z,14.69
2022-12-31T13:16:36.745Z,14.68
2022-12-31T13:20:50.040Z,14.84
2022-12-31T13:25:03.365Z,14.66
2022-12-31T13:29:08.757Z,14.65
2022-12-31T13:33:20.456Z,14.85
2022-12-31T13:37:27.394Z,14.90
2022-12-31T13:41:49.335Z,14.92
2022-12-31T14:48:43.500Z,16.22
2022-12-31T14:58:29.868Z,16.11
2022-12-31T15:02:34.368Z,16.00
2022-12-31T15:06:48.675Z,15.87
2022-12-31T15:11:03.686Z,15.84
2022-12-31T15:15:17.417Z,15.99
2022-12-31T15:19:18.836Z,15.90
2022-12-31T15:23:23.141Z,15.70
2022-12-31T15:27:33.273Z,15.71
2022-12-31T15:31:36.344Z,15.63
2022-12-31T15:35:48.198Z,15.81
2022-12-31T15:39:49.714Z,15.81
2022-12-31T15:43:51.154Z,16.04
2022-12-31T15:47:57.829Z,15.82
2022-12-31T15:52:07.926Z,15.80
2022-12-31T15:56:15.872Z,15.99
2022-12-31T16:00:22.593Z,15.98
2022-12-31T16:04:32.532Z,16.10
2022-12-31T16:08:35.346Z,16.23
2022-12-31T16:12:44.323Z,16.12
2022-12-31T16:17:25.155Z,16.15
2022-12-31T16:21:35.746Z,16.06
2022-12-31T16:25:37.249Z,15.99
2022-12-31T16:29:45.838Z,15.75
2022-12-31T16:33:50.299Z,15.86
2022-12-31T16:38:31.480Z,15.74
2022-12-31T16:42:32.935Z,15.81
2022-12-31T16:46:35.608Z,15.73
2022-12-31T16:50:37.565Z,15.47
2022-12-31T16:54:43.774Z,15.44
2022-12-31T16:58:45.759Z,15.40
2022-12-31T17:03:05.088Z,15.66
2022-12-31T17:07:26.958Z,15.40
2022-12-31T17:11:34.862Z,15.29
2022-12-31T17:15:43.129Z,15.52
2022-12-31T17:19:48.648Z,15.45
2022-12-31T17:23:55.494Z,15.51
2022-12-31T17:28:00.586Z,15.71
2022-12-31T17:32:18.048Z,15.40
2022-12-31T17:36:24.738Z,15.57
2022-12-31T17:40:54.434Z,15.39
2022-12-31T17:45:00.590Z,15.47
2022-12-31T17:49:02.947Z,15.35
2022-12-31T17:53:12.218Z,15.53
2022-12-31T17:57:26.930Z,15.46
2022-12-31T18:01:28.575Z,15.53
2022-12-31T18:05:30.098Z,15.62
2022-12-31T18:09:34.588Z,15.50
2022-12-31T18:13:36.729Z,15.47
2022-12-31T18:17:38.216Z,15.39
2022-12-31T18:21:39.966Z,15.47
2022-12-31T18:29:41.909Z,15.21
2022-12-31T18:33:43.931Z,15.25
2022-12-31T18:37:45.984Z,15.07
2022-12-31T18:41:50.975Z,14.99
2022-12-31T18:45:53.092Z,14.97
2022-12-31T18:49:54.881Z,15.11
2022-12-31T18:53:56.443Z,15.19
2022-12-31T18:57:57.938Z,15.13
2022-12-31T19:01:59.486Z,15.16
2022-12-31T19:06:00.983Z,15.16
2022-12-31T19:10:02.404Z,14.82
2022-12-31T19:14:05.839Z,14.93
2022-12-31T19:18:07.515Z,14.88
2022-12-31T19:22:16.282Z,14.84
2022-12-31T19:26:20.128Z,14.68
2022-12-31T19:30:26.794Z,14.71
2022-12-31T19:34:28.367Z,14.77
2022-12-31T19:38:32.078Z,14.97
2022-12-31T19:42:33.541Z,14.60
2022-12-31T19:46:34.959Z,14.78
2022-12-31T19:50:36.435Z,14.78
2022-12-31T19:54:38.015Z,14.60
2022-12-31T19:58:39.635Z,14.84
2022-12-31T20:02:41.633Z,14.81
2022-12-31T20:06:43.204Z,14.81
2022-12-31T20:10:45.950Z,14.87
2022-12-31T20:14:47.379Z,14.79
2022-12-31T20:18:50.439Z,14.60
2022-12-31T20:22:52.237Z,14.88
2022-12-31T20:26:53.688Z,14.80
2022-12-31T20:30:55.302Z,14.57
2022-12-31T20:34:56.789Z,14.58
2022-12-31T20:38:58.608Z,14.42
2022-12-31T20:43:00.131Z,14.71
2022-12-31T20:47:01.595Z,14.44
2022-12-31T20:51:03.196Z,14.53
2022-12-31T20:55:05.403Z,14.56
2022-12-31T20:59:08.214Z,14.50
2022-12-31T21:03:30.102Z,14.29
2022-12-31T21:07:31.168Z,14.33
2022-12-31T21:11:51.105Z,14.47
2022-12-31T21:15:53.814Z,14.53
2022-12-31T21:19:55.248Z,14.43
2022-12-31T21:23:56.833Z,14.52
2022-12-31T21:27:58.277Z,14.57
2022-12-31T21:31:59.773Z,14.86
2022-12-31T21:36:04.794Z,15.01
2022-12-31T21:40:06.885Z,14.98
2022-12-31T21:44:08.350Z,15.12
2022-12-31T21:48:20.414Z,15.16
2022-12-31T21:52:28.452Z,15.39
2022-12-31T21:56:30.064Z,15.40
2022-12-31T22:00:50.337Z,15.60
2022-12-31T22:05:17.349Z,15.51
2022-12-31T22:09:13.231Z,15.74
2022-12-31T22:13:15.901Z,15.51
2022-12-31T22:17:17.400Z,15.83
2022-12-31T22:21:21.182Z,15.92
2022-12-31T22:25:22.701Z,16.04
2022-12-31T22:29:25.856Z,15.72
2022-12-31T22:33:27.366Z,15.81
2022-12-31T22:37:56.236Z,15.95
2022-12-31T22:41:50.765Z,15.95
2022-12-31T22:45:52.843Z,16.30
2022-12-31T22:49:54.286Z,16.21
2022-12-31T22:53:55.730Z,16.19
2022-12-31T22:57:57.305Z,16.22
2022-12-31T23:01:58.712Z,16.32
2022-12-31T23:06:00.233Z,16.43
2022-12-31T23:10:20.340Z,16.22
2022-12-31T23:14:40.446Z,16.32
2022-12-31T23:19:05.403Z,16.13
2022-12-31T23:23:11.607Z,16.07
2022-12-31T23:27:13.177Z,16.09
2022-12-31T23:31:14.711Z,16.31
2022-12-31T23:35:16.211Z,16.40
2022-12-31T23:39:17.789Z,16.33
2022-12-31T23:43:22.012Z,16.27
2022-12-31T23:47:23.482Z,16.54
2022-12-31T23:51:24.944Z,16.36
2022-12-31T23:55:26.551Z,16.41
2022-12-31T23:59:28.085Z,16.39
